sensor_id;sensor_type;location;lat;lon;timestamp;pressure;altitude;pressure_sealevel;temperature;humidity
77574;BME280;66710;48.868;9.080;2023-06-05T00:02:03;98081.13;;;12.51;57.19
77574;BME280;66710;48.868;9.080;2023-06-05T00:04:28;98084.47;;;12.43;57.51
77574;BME280;66710;48.868;9.080;2023-06-05T00:06:54;98078.00;;;12.28;59.14
77574;BME280;66710;48.868;9.080;2023-06-05T00:09:21;98079.13;;;12.22;58.82
77574;BME280;66710;48.868;9.080;2023-06-05T00:11:47;98081.38;;;12.10;57.93
77574;BME280;66710;48.868;9.080;2023-06-05T00:14:12;98081.38;;;12.05;58.33
77574;BME280;66710;48.868;9.080;2023-06-05T00:16:37;98086.03;;;12.04;57.56
77574;BME280;66710;48.868;9.080;2023-06-05T00:19:03;98080.59;;;11.99;56.84
77574;BME280;66710;48.868;9.080;2023-06-05T00:21:29;98083.59;;;12.03;58.35
77574;BME280;66710;48.868;9.080;2023-06-05T00:23:54;98089.31;;;12.01;57.35
77574;BME280;66710;48.868;9.080;2023-06-05T00:26:20;98085.50;;;12.07;58.76
77574;BME280;66710;48.868;9.080;2023-06-05T00:28:46;98084.59;;;12.17;57.53
77574;BME280;66710;48.868;9.080;2023-06-05T00:31:11;98084.31;;;12.24;56.70
77574;BME280;66710;48.868;9.080;2023-06-05T00:33:38;98084.13;;;12.05;56.75
77574;BME280;66710;48.868;9.080;2023-06-05T00:36:03;98083.06;;;12.01;59.72
77574;BME280;66710;48.868;9.080;2023-06-05T00:38:29;98079.75;;;12.09;57.22
77574;BME280;66710;48.868;9.080;2023-06-05T00:40:54;98082.50;;;12.04;56.73
77574;BME280;66710;48.868;9.080;2023-06-05T00:43:19;98078.94;;;11.98;57.69
77574;BME280;66710;48.868;9.080;2023-06-05T00:45:45;98081.94;;;12.02;58.42
77574;BME280;66710;48.868;9.080;2023-06-05T00:48:10;98072.69;;;11.98;58.44
77574;BME280;66710;48.868;9.080;2023-06-05T00:50:36;98081.72;;;11.83;58.13
77574;BME280;66710;48.868;9.080;2023-06-05T00:53:03;98080.94;;;11.77;58.73
77574;BME280;66710;48.868;9.080;2023-06-05T00:55:31;98082.53;;;11.99;57.67
77574;BME280;66710;48.868;9.080;2023-06-05T00:57:56;98079.25;;;11.97;58.17
77574;BME280;66710;48.868;9.080;2023-06-05T01:00:22;98078.41;;;11.96;60.53
77574;BME280;66710;48.868;9.080;2023-06-05T01:02:48;98085.03;;;11.74;58.47
77574;BME280;66710;48.868;9.080;2023-06-05T01:05:18;98085.91;;;11.60;58.90
77574;BME280;66710;48.868;9.080;2023-06-05T01:07:44;98080.72;;;11.53;59.83
77574;BME280;66710;48.868;9.080;2023-06-05T01:10:12;98078.53;;;11.55;60.03
77574;BME280;66710;48.868;9.080;2023-06-05T01:12:45;98073.38;;;11.33;60.40
77574;BME280;66710;48.868;9.080;2023-06-05T01:15:11;98078.56;;;11.34;59.59
77574;BME280;66710;48.868;9.080;2023-06-05T01:17:37;98081.03;;;11.31;60.01
77574;BME280;66710;48.868;9.080;2023-06-05T01:20:03;98074.19;;;11.49;59.46
77574;BME280;66710;48.868;9.080;2023-06-05T01:22:32;98078.28;;;11.41;58.61
77574;BME280;66710;48.868;9.080;2023-06-05T01:24:57;98077.50;;;11.25;59.87
77574;BME280;66710;48.868;9.080;2023-06-05T01:27:25;98081.03;;;11.20;60.18
77574;BME280;66710;48.868;9.080;2023-06-05T01:30:01;98079.44;;;11.19;60.65
77574;BME280;66710;48.868;9.080;2023-06-05T01:32:52;98086.53;;;11.05;60.88
77574;BME280;66710;48.868;9.080;2023-06-05T01:35:19;98090.88;;;11.16;61.24
77574;BME280;66710;48.868;9.080;2023-06-05T01:37:47;98078.31;;;11.31;60.77
77574;BME280;66710;48.868;9.080;2023-06-05T01:40:19;98076.69;;;11.40;59.95
77574;BME280;66710;48.868;9.080;2023-06-05T01:42:45;98088.13;;;11.37;62.88
77574;BME280;66710;48.868;9.080;2023-06-05T01:45:12;98082.94;;;11.46;60.51
77574;BME280;66710;48.868;9.080;2023-06-05T01:47:38;98080.47;;;11.44;60.35
77574;BME280;66710;48.868;9.080;2023-06-05T01:50:05;98079.41;;;11.35;60.27
77574;BME280;66710;48.868;9.080;2023-06-05T01:52:31;98087.88;;;11.13;61.10
77574;BME280;66710;48.868;9.080;2023-06-05T01:54:56;98077.25;;;11.01;61.47
77574;BME280;66710;48.868;9.080;2023-06-05T01:57:28;98072.38;;;10.93;61.22
77574;BME280;66710;48.868;9.080;2023-06-05T01:59:54;98076.72;;;10.84;61.93
77574;BME280;66710;48.868;9.080;2023-06-05T02:02:20;98072.63;;;10.71;63.03
77574;BME280;66710;48.868;9.080;2023-06-05T02:04:46;98069.06;;;10.50;64.48
77574;BME280;66710;48.868;9.080;2023-06-05T02:07:13;98078.84;;;10.35;64.32
77574;BME280;66710;48.868;9.080;2023-06-05T02:09:42;98073.97;;;10.48;64.13
77574;BME280;66710;48.868;9.080;2023-06-05T02:12:08;98073.94;;;10.42;63.92
77574;BME280;66710;48.868;9.080;2023-06-05T02:14:33;98071.25;;;10.53;61.31
77574;BME280;66710;48.868;9.080;2023-06-05T02:17:06;98069.63;;;10.62;60.43
77574;BME280;66710;48.868;9.080;2023-06-05T02:19:34;98064.16;;;10.67;62.49
77574;BME280;66710;48.868;9.080;2023-06-05T02:22:00;98063.63;;;10.60;62.87
77574;BME280;66710;48.868;9.080;2023-06-05T02:24:25;98069.06;;;10.50;62.59
77574;BME280;66710;48.868;9.080;2023-06-05T02:26:51;98069.06;;;10.55;62.99
77574;BME280;66710;48.868;9.080;2023-06-05T02:29:17;98074.53;;;10.65;60.04
77574;BME280;66710;48.868;9.080;2023-06-05T02:31:42;98073.44;;;10.66;60.89
77574;BME280;66710;48.868;9.080;2023-06-05T02:34:09;98071.78;;;10.60;60.01
77574;BME280;66710;48.868;9.080;2023-06-05T02:36:34;98069.88;;;10.66;60.50
77574;BME280;66710;48.868;9.080;2023-06-05T02:39:00;98059.00;;;10.86;61.56
77574;BME280;66710;48.868;9.080;2023-06-05T02:41:26;98070.44;;;10.93;61.53
77574;BME280;66710;48.868;9.080;2023-06-05T02:43:52;98073.47;;;10.71;63.08
77574;BME280;66710;48.868;9.080;2023-06-05T02:46:19;98077.81;;;10.52;64.37
77574;BME280;66710;48.868;9.080;2023-06-05T02:48:45;98078.84;;;10.40;65.36
77574;BME280;66710;48.868;9.080;2023-06-05T02:51:11;98079.13;;;10.39;64.43
77574;BME280;66710;48.868;9.080;2023-06-05T02:53:37;98076.06;;;10.30;66.14
77574;BME280;66710;48.868;9.080;2023-06-05T02:56:03;98068.53;;;10.63;63.64
77574;BME280;66710;48.868;9.080;2023-06-05T02:58:28;98066.09;;;10.72;63.96
77574;BME280;66710;48.868;9.080;2023-06-05T03:00:54;98064.44;;;10.81;63.70
77574;BME280;66710;48.868;9.080;2023-06-05T03:03:24;98063.91;;;10.79;63.65
77574;BME280;66710;48.868;9.080;2023-06-05T03:05:54;98069.06;;;10.65;64.86
77574;BME280;66710;48.868;9.080;2023-06-05T03:08:19;98064.97;;;10.42;64.22
77574;BME280;66710;48.868;9.080;2023-06-05T03:10:45;98072.81;;;10.28;66.61
77574;BME280;66710;48.868;9.080;2023-06-05T03:13:10;98078.19;;;10.13;67.52
77574;BME280;66710;48.868;9.080;2023-06-05T03:15:35;98073.03;;;10.11;68.61
77574;BME280;66710;48.868;9.080;2023-06-05T03:18:00;98064.31;;;10.09;68.27
77574;BME280;66710;48.868;9.080;2023-06-05T03:20:26;98066.50;;;10.12;66.07
77574;BME280;66710;48.868;9.080;2023-06-05T03:22:51;98066.22;;;10.09;66.08
77574;BME280;66710;48.868;9.080;2023-06-05T03:25:16;98068.41;;;10.12;66.51
77574;BME280;66710;48.868;9.080;2023-06-05T03:27:42;98068.59;;;9.90;66.74
77574;BME280;66710;48.868;9.080;2023-06-05T03:30:08;98065.34;;;9.87;66.43
77574;BME280;66710;48.868;9.080;2023-06-05T03:32:34;98066.41;;;9.81;67.49
77574;BME280;66710;48.868;9.080;2023-06-05T03:34:59;98069.38;;;9.80;66.74
77574;BME280;66710;48.868;9.080;2023-06-05T03:37:25;98072.91;;;9.80;66.93
77574;BME280;66710;48.868;9.080;2023-06-05T03:39:50;98077.78;;;9.73;66.80
77574;BME280;66710;48.868;9.080;2023-06-05T03:42:15;98080.47;;;9.68;66.29
77574;BME280;66710;48.868;9.080;2023-06-05T03:44:40;98079.13;;;9.65;67.20
77574;BME280;66710;48.868;9.080;2023-06-05T03:47:06;98075.84;;;9.68;66.80
77574;BME280;66710;48.868;9.080;2023-06-05T03:49:33;98081.59;;;9.72;66.63
77574;BME280;66710;48.868;9.080;2023-06-05T03:51:58;98076.72;;;9.74;66.17
77574;BME280;66710;48.868;9.080;2023-06-05T03:54:27;98083.31;;;9.94;68.41
77574;BME280;66710;48.868;9.080;2023-06-05T03:56:53;98086.03;;;9.89;67.84
77574;BME280;66710;48.868;9.080;2023-06-05T03:59:20;98095.50;;;9.81;66.09
77574;BME280;66710;48.868;9.080;2023-06-05T04:01:46;98094.16;;;9.83;69.73
77574;BME280;66710;48.868;9.080;2023-06-05T04:04:11;98091.72;;;9.87;67.63
77574;BME280;66710;48.868;9.080;2023-06-05T04:06:37;98089.78;;;9.82;66.95
77574;BME280;66710;48.868;9.080;2023-06-05T04:09:03;98089.78;;;9.82;67.25
77574;BME280;66710;48.868;9.080;2023-06-05T04:11:40;98098.22;;;9.81;67.07
77574;BME280;66710;48.868;9.080;2023-06-05T04:14:06;98097.41;;;9.80;67.84
77574;BME280;66710;48.868;9.080;2023-06-05T04:16:32;98094.97;;;9.84;67.93
77574;BME280;66710;48.868;9.080;2023-06-05T04:18:59;98101.81;;;9.92;66.77
77574;BME280;66710;48.868;9.080;2023-06-05T04:21:24;98099.66;;;9.94;67.08
77574;BME280;66710;48.868;9.080;2023-06-05T04:23:50;98098.28;;;9.96;66.97
77574;BME280;66710;48.868;9.080;2023-06-05T04:26:15;98098.88;;;10.09;64.83
77574;BME280;66710;48.868;9.080;2023-06-05T04:28:42;98099.81;;;10.35;65.63
77574;BME280;66710;48.868;9.080;2023-06-05T04:31:09;98103.31;;;10.30;64.74
77574;BME280;66710;48.868;9.080;2023-06-05T04:33:34;98102.81;;;10.33;65.01
77574;BME280;66710;48.868;9.080;2023-06-05T04:36:00;98105.00;;;10.36;65.09
77574;BME280;66710;48.868;9.080;2023-06-05T04:38:25;98106.91;;;10.41;63.95
77574;BME280;66710;48.868;9.080;2023-06-05T04:40:50;98108.59;;;10.62;67.58
77574;BME280;66710;48.868;9.080;2023-06-05T04:43:16;98099.06;;;10.75;65.83
77574;BME280;66710;48.868;9.080;2023-06-05T04:45:41;98103.97;;;10.84;67.30
77574;BME280;66710;48.868;9.080;2023-06-05T04:48:08;98096.34;;;10.86;67.38
77574;BME280;66710;48.868;9.080;2023-06-05T04:50:34;98100.44;;;10.98;68.04
77574;BME280;66710;48.868;9.080;2023-06-05T04:53:01;98108.34;;;11.10;67.27
77574;BME280;66710;48.868;9.080;2023-06-05T04:55:26;98107.50;;;11.30;67.10
77574;BME280;66710;48.868;9.080;2023-06-05T04:57:52;98105.59;;;11.31;68.22
77574;BME280;66710;48.868;9.080;2023-06-05T05:00:18;98108.31;;;11.31;68.81
77574;BME280;66710;48.868;9.080;2023-06-05T05:02:44;98102.56;;;11.48;67.64
77574;BME280;66710;48.868;9.080;2023-06-05T05:05:10;98102.56;;;11.53;67.14
77574;BME280;66710;48.868;9.080;2023-06-05T05:07:41;98100.34;;;11.70;65.82
77574;BME280;66710;48.868;9.080;2023-06-05T05:10:08;98101.38;;;11.85;64.01
77574;BME280;66710;48.868;9.080;2023-06-05T05:12:33;98108.19;;;11.92;64.44
77574;BME280;66710;48.868;9.080;2023-06-05T05:14:59;98111.97;;;12.07;63.85
77574;BME280;66710;48.868;9.080;2023-06-05T05:17:24;98110.28;;;12.21;64.27
77574;BME280;66710;48.868;9.080;2023-06-05T05:19:51;98114.31;;;12.29;64.06
77574;BME280;66710;48.868;9.080;2023-06-05T05:22:16;98110.19;;;12.37;62.61
77574;BME280;66710;48.868;9.080;2023-06-05T05:24:42;98110.16;;;12.42;61.14
77574;BME280;66710;48.868;9.080;2023-06-05T05:27:07;98111.50;;;12.49;60.56
77574;BME280;66710;48.868;9.080;2023-06-05T05:29:33;98109.81;;;12.54;60.77
77574;BME280;66710;48.868;9.080;2023-06-05T05:31:58;98106.75;;;12.65;60.18
77574;BME280;66710;48.868;9.080;2023-06-05T05:34:24;98115.41;;;12.78;60.17
77574;BME280;66710;48.868;9.080;2023-06-05T05:36:49;98116.44;;;12.87;59.35
77574;BME280;66710;48.868;9.080;2023-06-05T05:39:14;98109.53;;;12.95;59.43
77574;BME280;66710;48.868;9.080;2023-06-05T05:41:41;98127.41;;;12.82;58.37
77574;BME280;66710;48.868;9.080;2023-06-05T05:44:07;98122.72;;;12.87;59.44
77574;BME280;66710;48.868;9.080;2023-06-05T05:46:32;98123.06;;;13.15;58.41
77574;BME280;66710;48.868;9.080;2023-06-05T05:48:58;98113.13;;;13.24;59.24
77574;BME280;66710;48.868;9.080;2023-06-05T05:51:23;98120.25;;;13.25;60.43
77574;BME280;66710;48.868;9.080;2023-06-05T05:53:48;98116.31;;;13.37;60.16
77574;BME280;66710;48.868;9.080;2023-06-05T05:56:14;98120.50;;;13.58;59.44
77574;BME280;66710;48.868;9.080;2023-06-05T05:58:39;98116.56;;;13.70;58.07
77574;BME280;66710;48.868;9.080;2023-06-05T06:01:04;98124.28;;;14.11;57.11
77574;BME280;66710;48.868;9.080;2023-06-05T06:03:30;98109.41;;;14.17;58.55
77574;BME280;66710;48.868;9.080;2023-06-05T06:05:58;98105.97;;;14.30;57.77
77574;BME280;66710;48.868;9.080;2023-06-05T06:08:24;98108.31;;;14.61;57.40
77574;BME280;66710;48.868;9.080;2023-06-05T06:10:50;98110.69;;;14.68;57.26
77574;BME280;66710;48.868;9.080;2023-06-05T06:13:15;98111.34;;;14.78;57.06
77574;BME280;66710;48.868;9.080;2023-06-05T06:15:40;98111.91;;;14.94;57.10
77574;BME280;66710;48.868;9.080;2023-06-05T06:18:06;98112.69;;;15.14;56.40
77574;BME280;66710;48.868;9.080;2023-06-05T06:20:32;98112.63;;;15.19;56.67
77574;BME280;66710;48.868;9.080;2023-06-05T06:22:58;98113.16;;;15.35;54.92
77574;BME280;66710;48.868;9.080;2023-06-05T06:25:24;98116.06;;;15.58;55.42
77574;BME280;66710;48.868;9.080;2023-06-05T06:28:03;98110.44;;;15.82;53.86
77574;BME280;66710;48.868;9.080;2023-06-05T06:30:28;98109.63;;;15.95;54.03
77574;BME280;66710;48.868;9.080;2023-06-05T06:32:54;98111.88;;;16.07;54.41
77574;BME280;66710;48.868;9.080;2023-06-05T06:35:24;98115.75;;;16.06;53.04
77574;BME280;66710;48.868;9.080;2023-06-05T06:37:52;98122.53;;;16.50;53.11
77574;BME280;66710;48.868;9.080;2023-06-05T06:40:18;98119.28;;;16.84;52.15
77574;BME280;66710;48.868;9.080;2023-06-05T06:42:44;98125.25;;;17.00;51.29
77574;BME280;66710;48.868;9.080;2023-06-05T06:45:10;98123.19;;;17.06;51.44
77574;BME280;66710;48.868;9.080;2023-06-05T06:47:35;98124.84;;;17.30;50.92
77574;BME280;66710;48.868;9.080;2023-06-05T06:50:00;98130.66;;;17.28;50.00
77574;BME280;66710;48.868;9.080;2023-06-05T06:52:26;98127.00;;;17.73;50.28
77574;BME280;66710;48.868;9.080;2023-06-05T06:54:51;98124.19;;;18.27;48.21
77574;BME280;66710;48.868;9.080;2023-06-05T06:57:17;98121.19;;;18.06;51.23
77574;BME280;66710;48.868;9.080;2023-06-05T06:59:42;98122.56;;;18.34;50.43
77574;BME280;66710;48.868;9.080;2023-06-05T07:02:10;98115.59;;;18.37;48.95
77574;BME280;66710;48.868;9.080;2023-06-05T07:04:37;98123.00;;;18.85;46.03
77574;BME280;66710;48.868;9.080;2023-06-05T07:07:03;98125.25;;;18.08;46.81
77574;BME280;66710;48.868;9.080;2023-06-05T07:09:29;98111.59;;;19.22;45.44
77574;BME280;66710;48.868;9.080;2023-06-05T07:11:54;98121.47;;;18.53;47.27
77574;BME280;66710;48.868;9.080;2023-06-05T07:14:20;98116.81;;;19.14;45.91
77574;BME280;66710;48.868;9.080;2023-06-05T07:16:45;98111.47;;;19.01;46.37
77574;BME280;66710;48.868;9.080;2023-06-05T07:19:13;98114.47;;;19.51;45.74
77574;BME280;66710;48.868;9.080;2023-06-05T07:21:38;98117.13;;;19.30;43.56
77574;BME280;66710;48.868;9.080;2023-06-05T07:24:05;98108.59;;;19.62;43.96
77574;BME280;66710;48.868;9.080;2023-06-05T07:26:30;98121.78;;;19.56;44.79
77574;BME280;66710;48.868;9.080;2023-06-05T07:28:57;98114.72;;;19.94;43.04
77574;BME280;66710;48.868;9.080;2023-06-05T07:31:22;98100.88;;;20.53;44.00
77574;BME280;66710;48.868;9.080;2023-06-05T07:33:47;98104.84;;;20.43;42.21
77574;BME280;66710;48.868;9.080;2023-06-05T07:36:13;98108.22;;;20.28;44.07
77574;BME280;66710;48.868;9.080;2023-06-05T07:38:38;98104.38;;;20.41;44.90
77574;BME280;66710;48.868;9.080;2023-06-05T07:41:05;98111.34;;;20.77;43.42
77574;BME280;66710;48.868;9.080;2023-06-05T07:43:30;98100.84;;;20.62;42.55
77574;BME280;66710;48.868;9.080;2023-06-05T07:45:56;98103.09;;;20.69;43.76
77574;BME280;66710;48.868;9.080;2023-06-05T07:48:22;98106.47;;;20.74;41.05
77574;BME280;66710;48.868;9.080;2023-06-05T07:50:47;98103.31;;;21.39;39.66
77574;BME280;66710;48.868;9.080;2023-06-05T07:53:12;98109.19;;;20.83;42.91
77574;BME280;66710;48.868;9.080;2023-06-05T07:55:37;98107.69;;;21.86;42.64
77574;BME280;66710;48.868;9.080;2023-06-05T07:58:03;98102.16;;;22.23;38.63
77574;BME280;66710;48.868;9.080;2023-06-05T08:00:28;98099.50;;;21.89;39.73
77574;BME280;66710;48.868;9.080;2023-06-05T08:02:54;98107.72;;;22.10;39.47
77574;BME280;66710;48.868;9.080;2023-06-05T08:05:19;98098.00;;;21.92;39.42
77574;BME280;66710;48.868;9.080;2023-06-05T08:07:45;98098.13;;;22.20;41.30
77574;BME280;66710;48.868;9.080;2023-06-05T08:10:11;98097.88;;;22.25;39.29
77574;BME280;66710;48.868;9.080;2023-06-05T08:12:37;98101.72;;;22.21;41.55
77574;BME280;66710;48.868;9.080;2023-06-05T08:15:02;98095.91;;;23.03;40.14
77574;BME280;66710;48.868;9.080;2023-06-05T08:17:28;98090.16;;;22.43;40.52
77574;BME280;66710;48.868;9.080;2023-06-05T08:19:53;98091.53;;;22.49;40.79
77574;BME280;66710;48.868;9.080;2023-06-05T08:22:19;98097.66;;;22.18;40.63
77574;BME280;66710;48.868;9.080;2023-06-05T08:24:44;98093.69;;;22.68;40.54
77574;BME280;66710;48.868;9.080;2023-06-05T08:27:09;98099.97;;;23.06;39.50
77574;BME280;66710;48.868;9.080;2023-06-05T08:29:35;98094.28;;;23.02;40.48
77574;BME280;66710;48.868;9.080;2023-06-05T08:32:03;98092.94;;;23.53;37.62
77574;BME280;66710;48.868;9.080;2023-06-05T08:34:29;98085.59;;;23.16;39.05
77574;BME280;66710;48.868;9.080;2023-06-05T08:36:55;98085.38;;;23.37;38.23
77574;BME280;66710;48.868;9.080;2023-06-05T08:39:23;98088.63;;;23.11;39.67
77574;BME280;66710;48.868;9.080;2023-06-05T08:41:51;98099.59;;;23.20;40.26
77574;BME280;66710;48.868;9.080;2023-06-05T08:44:16;98090.25;;;23.00;38.70
77574;BME280;66710;48.868;9.080;2023-06-05T08:46:43;98090.03;;;23.33;40.47
77574;BME280;66710;48.868;9.080;2023-06-05T08:49:10;98094.56;;;23.25;40.52
77574;BME280;66710;48.868;9.080;2023-06-05T08:51:38;98095.84;;;23.28;42.77
77574;BME280;66710;48.868;9.080;2023-06-05T08:54:05;98094.44;;;23.06;42.21
77574;BME280;66710;48.868;9.080;2023-06-05T08:56:38;98088.69;;;23.43;40.52
77574;BME280;66710;48.868;9.080;2023-06-05T08:59:05;98091.13;;;23.44;41.25
77574;BME280;66710;48.868;9.080;2023-06-05T09:01:30;98084.31;;;24.02;39.92
77574;BME280;66710;48.868;9.080;2023-06-05T09:03:57;98086.44;;;23.33;41.59
77574;BME280;66710;48.868;9.080;2023-06-05T09:06:22;98079.31;;;23.47;40.58
77574;BME280;66710;48.868;9.080;2023-06-05T09:08:48;98079.38;;;24.63;40.88
77574;BME280;66710;48.868;9.080;2023-06-05T09:11:28;98080.13;;;23.80;42.30
77574;BME280;66710;48.868;9.080;2023-06-05T09:13:56;98075.56;;;24.03;40.19
77574;BME280;66710;48.868;9.080;2023-06-05T09:16:23;98083.59;;;24.56;38.78
77574;BME280;66710;48.868;9.080;2023-06-05T09:18:57;98073.81;;;23.51;39.80
77574;BME280;66710;48.868;9.080;2023-06-05T09:21:24;98080.47;;;23.78;41.40
77574;BME280;66710;48.868;9.080;2023-06-05T09:24:09;98076.66;;;24.50;40.67
77574;BME280;66710;48.868;9.080;2023-06-05T09:29:28;98074.59;;;24.63;39.75
77574;BME280;66710;48.868;9.080;2023-06-05T09:31:56;98067.94;;;24.68;41.04
77574;BME280;66710;48.868;9.080;2023-06-05T09:34:26;98066.47;;;24.74;40.94
77574;BME280;66710;48.868;9.080;2023-06-05T09:36:52;98071.69;;;25.14;40.27
77574;BME280;66710;48.868;9.080;2023-06-05T09:39:20;98074.09;;;25.35;38.50
77574;BME280;66710;48.868;9.080;2023-06-05T09:41:47;98068.22;;;25.41;37.71
77574;BME280;66710;48.868;9.080;2023-06-05T09:44:14;98067.50;;;24.85;39.33
77574;BME280;66710;48.868;9.080;2023-06-05T09:47:02;98069.56;;;25.47;40.40
77574;BME280;66710;48.868;9.080;2023-06-05T09:51:57;98063.31;;;25.14;40.08
77574;BME280;66710;48.868;9.080;2023-06-05T09:54:25;98060.66;;;25.61;37.62
77574;BME280;66710;48.868;9.080;2023-06-05T09:56:57;98055.91;;;26.11;38.17
77574;BME280;66710;48.868;9.080;2023-06-05T09:59:22;98058.22;;;25.59;38.18
77574;BME280;66710;48.868;9.080;2023-06-05T10:01:51;98053.81;;;26.04;35.98
77574;BME280;66710;48.868;9.080;2023-06-05T10:04:22;98048.53;;;25.76;38.21
77574;BME280;66710;48.868;9.080;2023-06-05T10:06:48;98052.00;;;26.16;37.44
77574;BME280;66710;48.868;9.080;2023-06-05T10:09:14;98060.88;;;25.52;37.80
77574;BME280;66710;48.868;9.080;2023-06-05T10:11:40;98046.81;;;24.15;39.52
77574;BME280;66710;48.868;9.080;2023-06-05T10:14:07;98051.16;;;24.64;38.71
77574;BME280;66710;48.868;9.080;2023-06-05T10:16:33;98043.25;;;25.71;36.95
77574;BME280;66710;48.868;9.080;2023-06-05T10:18:59;98038.47;;;26.18;35.21
77574;BME280;66710;48.868;9.080;2023-06-05T10:21:25;98042.13;;;26.79;35.75
77574;BME280;66710;48.868;9.080;2023-06-05T10:23:55;98049.50;;;25.22;38.09
77574;BME280;66710;48.868;9.080;2023-06-05T10:29:42;98039.41;;;24.55;39.57
77574;BME280;66710;48.868;9.080;2023-06-05T10:32:33;98044.84;;;23.68;40.78
77574;BME280;66710;48.868;9.080;2023-06-05T10:40:26;98047.13;;;25.86;35.15
77574;BME280;66710;48.868;9.080;2023-06-05T10:42:52;98042.84;;;26.19;36.94
77574;BME280;66710;48.868;9.080;2023-06-05T10:45:30;98043.75;;;26.23;34.79
77574;BME280;66710;48.868;9.080;2023-06-05T10:47:56;98043.91;;;26.07;35.95
77574;BME280;66710;48.868;9.080;2023-06-05T10:50:22;98036.19;;;26.00;36.60
77574;BME280;66710;48.868;9.080;2023-06-05T10:52:51;98027.44;;;26.85;34.07
77574;BME280;66710;48.868;9.080;2023-06-05T10:55:18;98033.63;;;24.83;34.67
77574;BME280;66710;48.868;9.080;2023-06-05T10:58:02;98035.22;;;25.89;33.31
77574;BME280;66710;48.868;9.080;2023-06-05T11:00:28;98029.88;;;26.03;32.74
77574;BME280;66710;48.868;9.080;2023-06-05T11:02:54;98026.69;;;26.89;30.00
77574;BME280;66710;48.868;9.080;2023-06-05T11:05:20;98023.59;;;26.97;31.23
77574;BME280;66710;48.868;9.080;2023-06-05T11:07:47;98007.72;;;26.44;30.06
77574;BME280;66710;48.868;9.080;2023-06-05T11:15:57;98011.97;;;27.29;29.12
77574;BME280;66710;48.868;9.080;2023-06-05T11:18:30;98021.13;;;27.67;32.10
77574;BME280;66710;48.868;9.080;2023-06-05T11:20:56;98015.63;;;26.99;29.16
77574;BME280;66710;48.868;9.080;2023-06-05T11:23:22;98016.63;;;27.55;28.75
77574;BME280;66710;48.868;9.080;2023-06-05T11:25:52;98006.81;;;26.10;29.32
77574;BME280;66710;48.868;9.080;2023-06-05T11:28:37;98009.06;;;24.89;32.79
77574;BME280;66710;48.868;9.080;2023-06-05T11:31:03;98011.53;;;24.94;32.46
77574;BME280;66710;48.868;9.080;2023-06-05T11:33:28;98004.00;;;24.55;34.93
77574;BME280;66710;48.868;9.080;2023-06-05T11:35:59;97996.69;;;25.09;31.60
77574;BME280;66710;48.868;9.080;2023-06-05T11:38:25;97992.56;;;25.92;30.06
77574;BME280;66710;48.868;9.080;2023-06-05T11:40:51;97998.28;;;23.97;32.29
77574;BME280;66710;48.868;9.080;2023-06-05T11:43:16;98001.78;;;25.46;31.41
77574;BME280;66710;48.868;9.080;2023-06-05T11:45:52;97994.47;;;26.11;30.14
77574;BME280;66710;48.868;9.080;2023-06-05T11:48:18;97987.72;;;26.42;29.66
77574;BME280;66710;48.868;9.080;2023-06-05T11:51:01;97986.63;;;26.51;29.40
77574;BME280;66710;48.868;9.080;2023-06-05T11:53:28;97987.50;;;27.64;28.93
77574;BME280;66710;48.868;9.080;2023-06-05T11:55:55;97986.28;;;27.61;27.99
77574;BME280;66710;48.868;9.080;2023-06-05T11:58:34;97989.22;;;26.63;28.53
77574;BME280;66710;48.868;9.080;2023-06-05T12:03:30;97994.63;;;26.82;27.74
77574;BME280;66710;48.868;9.080;2023-06-05T12:05:55;97986.66;;;28.08;25.30
77574;BME280;66710;48.868;9.080;2023-06-05T12:08:24;97986.25;;;28.06;27.29
77574;BME280;66710;48.868;9.080;2023-06-05T12:10:51;97978.91;;;27.42;29.16
77574;BME280;66710;48.868;9.080;2023-06-05T12:13:16;97974.78;;;26.00;30.54
77574;BME280;66710;48.868;9.080;2023-06-05T12:15:41;97977.44;;;26.80;29.13
77574;BME280;66710;48.868;9.080;2023-06-05T12:18:07;97980.03;;;27.78;27.66
77574;BME280;66710;48.868;9.080;2023-06-05T12:20:38;97981.19;;;27.29;28.57
77574;BME280;66710;48.868;9.080;2023-06-05T12:23:03;97982.88;;;28.48;27.17
77574;BME280;66710;48.868;9.080;2023-06-05T12:25:29;97979.97;;;28.23;27.46
77574;BME280;66710;48.868;9.080;2023-06-05T12:27:54;97972.81;;;27.77;28.04
77574;BME280;66710;48.868;9.080;2023-06-05T12:30:20;97974.91;;;28.50;26.78
77574;BME280;66710;48.868;9.080;2023-06-05T12:32:45;97974.19;;;28.64;25.53
77574;BME280;66710;48.868;9.080;2023-06-05T12:35:21;97968.41;;;29.48;23.79
77574;BME280;66710;48.868;9.080;2023-06-05T12:37:50;97971.22;;;28.35;26.49
77574;BME280;66710;48.868;9.080;2023-06-05T12:40:17;97966.84;;;28.42;28.23
77574;BME280;66710;48.868;9.080;2023-06-05T12:42:46;97959.56;;;26.55;28.89
77574;BME280;66710;48.868;9.080;2023-06-05T12:45:12;97961.72;;;25.85;29.72
77574;BME280;66710;48.868;9.080;2023-06-05T12:47:38;97958.19;;;25.88;29.99
77574;BME280;66710;48.868;9.080;2023-06-05T12:50:04;97944.03;;;27.80;27.30
77574;BME280;66710;48.868;9.080;2023-06-05T12:52:32;97951.22;;;27.78;27.28
77574;BME280;66710;48.868;9.080;2023-06-05T12:54:58;97951.47;;;28.10;27.08
77574;BME280;66710;48.868;9.080;2023-06-05T12:57:23;97948.50;;;27.89;26.95
77574;BME280;66710;48.868;9.080;2023-06-05T12:59:51;97950.53;;;28.54;27.57
77574;BME280;66710;48.868;9.080;2023-06-05T13:02:17;97944.97;;;28.72;26.12
77574;BME280;66710;48.868;9.080;2023-06-05T13:04:42;97950.38;;;25.97;29.98
77574;BME280;66710;48.868;9.080;2023-06-05T13:07:08;97945.41;;;25.87;30.38
77574;BME280;66710;48.868;9.080;2023-06-05T13:09:33;97945.31;;;25.30;31.24
77574;BME280;66710;48.868;9.080;2023-06-05T13:12:00;97954.84;;;25.09;31.77
77574;BME280;66710;48.868;9.080;2023-06-05T13:14:26;97955.44;;;24.95;32.17
77574;BME280;66710;48.868;9.080;2023-06-05T13:16:51;97945.34;;;25.10;31.22
77574;BME280;66710;48.868;9.080;2023-06-05T13:19:17;97946.25;;;24.95;31.89
77574;BME280;66710;48.868;9.080;2023-06-05T13:21:42;97942.47;;;25.26;30.23